Time;durP1;ratioP1;P1;durP2;ratioP2;P2;SDS_P1;SDS_P2;PMS_P1;PMS_P2;Temp;Humidity;BMP_temperature;BMP_pressure;BME280_temperature;BME280_humidity;BME280_pressure;Samples;Min_cycle;Max_cycle;Signal;HPM_P1;HPM_P2
2023/07/03 00:01:27;;;;;;;5.82;2.45;;;;;;;16.67;73.31;100519.00;6204204;28;20354;-75
2023/07/03 00:04:28;;;;;;;5.90;2.20;;;;;;;16.70;73.99;100518.72;6211024;28;20073;-75
2023/07/03 00:07:31;;;;;;;5.03;2.03;;;;;;;16.68;73.33;100513.53;6197115;28;20043;-75
2023/07/03 00:10:32;;;;;;;7.88;1.90;;;;;;;16.68;73.66;100520.66;6211658;28;20053;-75
2023/07/03 00:13:34;;;;;;;5.88;2.17;;;;;;;16.64;73.45;100511.28;6180920;28;20047;-75
2023/07/03 00:16:35;;;;;;;4.97;2.22;;;;;;;16.59;74.00;100506.34;6203513;28;20053;-75
2023/07/03 00:19:36;;;;;;;9.20;2.20;;;;;;;16.59;73.06;100513.47;6196114;28;20045;-75
2023/07/03 00:22:39;;;;;;;6.13;1.88;;;;;;;16.64;73.55;100512.09;6195798;28;20053;-75
2023/07/03 00:25:41;;;;;;;7.93;2.20;;;;;;;16.63;73.35;100504.28;6194801;28;20046;-75
2023/07/03 00:28:43;;;;;;;6.10;2.40;;;;;;;16.63;73.47;100506.94;6187352;28;20046;-75
2023/07/03 00:31:44;;;;;;;9.52;3.40;;;;;;;16.60;72.89;100500.06;6195217;28;20053;-75
2023/07/03 00:34:45;;;;;;;5.20;2.10;;;;;;;16.61;73.72;100493.78;6187380;28;20046;-75
2023/07/03 00:37:48;;;;;;;6.60;2.50;;;;;;;16.61;72.29;100495.59;6194360;28;20054;-75
2023/07/03 00:40:49;;;;;;;6.32;2.05;;;;;;;16.57;73.42;100492.34;6196712;28;20046;-75
2023/07/03 00:43:51;;;;;;;5.30;2.08;;;;;;;16.56;73.30;100490.66;6203121;28;20084;-75
2023/07/03 00:46:53;;;;;;;6.10;2.22;;;;;;;16.54;72.34;100475.88;6203302;28;20050;-75
2023/07/03 00:49:54;;;;;;;7.68;2.28;;;;;;;16.52;72.10;100473.31;6203331;28;20052;-75
2023/07/03 00:53:00;;;;;;;5.13;2.28;;;;;;;16.52;73.52;100481.28;6202889;28;20046;-76
2023/07/03 00:56:03;;;;;;;7.93;2.92;;;;;;;16.46;72.85;100487.94;6202960;28;20362;-75
2023/07/03 00:59:05;;;;;;;7.15;2.60;;;;;;;16.49;71.86;100484.19;6202889;28;20046;-75
2023/07/03 01:02:11;;;;;;;8.00;2.15;;;;;;;16.46;70.85;100492.41;6202635;28;20047;-75
2023/07/03 01:05:19;;;;;;;8.40;2.53;;;;;;;16.37;71.51;100485.19;6203129;28;20046;-75
2023/07/03 01:08:23;;;;;;;12.10;2.92;;;;;;;16.38;70.73;100495.69;6202465;28;20058;-75
2023/07/03 01:11:25;;;;;;;5.07;2.67;;;;;;;16.33;71.06;100491.72;6202494;28;20053;-76
2023/07/03 01:14:28;;;;;;;8.90;2.70;;;;;;;16.26;70.92;100494.03;6202669;28;20058;-78
2023/07/03 01:17:30;;;;;;;5.93;2.58;;;;;;;16.23;72.12;100489.81;6202528;28;20688;-77
2023/07/03 01:20:37;;;;;;;12.73;2.65;;;;;;;16.26;71.81;100493.16;6202497;28;20054;-76
2023/07/03 01:23:46;;;;;;;7.85;2.35;;;;;;;16.35;71.53;100484.47;6202249;28;20051;-76
2023/07/03 01:26:49;;;;;;;9.00;2.28;;;;;;;16.39;72.14;100486.75;6201321;28;20074;-76
2023/07/03 01:29:52;;;;;;;8.65;2.58;;;;;;;16.42;71.41;100486.50;6195717;28;20038;-76
2023/07/03 01:32:55;;;;;;;9.25;2.55;;;;;;;16.30;71.83;100495.44;6201960;28;20046;-75
2023/07/03 01:35:58;;;;;;;6.00;2.40;;;;;;;16.34;72.46;100493.41;6202392;28;20061;-75
2023/07/03 01:39:02;;;;;;;6.30;2.50;;;;;;;16.38;73.91;100487.72;6210122;28;20053;-76
2023/07/03 01:42:06;;;;;;;7.82;2.28;;;;;;;16.31;74.31;100481.25;6205161;28;20045;-76
2023/07/03 01:45:08;;;;;;;6.03;2.08;;;;;;;16.26;73.78;100485.22;6186293;28;20057;-76
2023/07/03 01:48:10;;;;;;;4.78;2.13;;;;;;;16.31;73.91;100483.06;6197812;28;20042;-75
2023/07/03 01:51:26;;;;;;;7.63;2.65;;;;;;;16.27;74.25;100482.47;6201755;28;20050;-75
2023/07/03 01:54:43;;;;;;;6.50;2.38;;;;;;;16.24;74.89;100472.09;6208532;28;20136;-75
2023/07/03 01:57:53;;;;;;;6.70;2.60;;;;;;;16.25;74.69;100471.13;6193760;28;20039;-76
2023/07/03 02:00:59;;;;;;;8.93;2.80;;;;;;;16.20;75.47;100470.66;6195710;28;20169;-76
2023/07/03 02:04:06;;;;;;;5.70;2.47;;;;;;;16.11;75.01;100464.28;6204048;28;20383;-76
2023/07/03 02:07:10;;;;;;;6.10;2.28;;;;;;;15.91;75.48;100465.91;6186501;28;20042;-76
2023/07/03 02:10:12;;;;;;;12.25;3.30;;;;;;;15.88;76.18;100467.94;6197485;28;20339;-77
2023/07/03 02:13:14;;;;;;;9.85;2.45;;;;;;;15.89;76.71;100466.97;6205822;28;20042;-76
2023/07/03 02:16:16;;;;;;;7.53;2.75;;;;;;;15.89;77.56;100469.63;6183942;28;20050;-76
2023/07/03 02:23:14;;;;;;;9.90;2.78;;;;;;;15.86;78.35;100476.03;6191470;28;20110;-77
2023/07/03 02:26:16;;;;;;;7.93;2.55;;;;;;;15.84;78.76;100472.66;6197979;28;20046;-76
2023/07/03 02:29:19;;;;;;;14.45;3.63;;;;;;;15.84;79.48;100472.66;6201495;28;20038;-77
2023/07/03 02:32:20;;;;;;;13.85;3.30;;;;;;;15.69;79.67;100473.88;6205996;28;20338;-77
2023/07/03 02:35:22;;;;;;;9.98;2.88;;;;;;;15.77;80.10;100471.47;6182467;28;20057;-75
2023/07/03 02:38:23;;;;;;;17.40;3.15;;;;;;;15.72;79.89;100471.84;6198784;28;20038;-77
2023/07/03 02:41:25;;;;;;;12.35;3.67;;;;;;;15.78;80.18;100477.59;6200894;28;20046;-76
2023/07/03 02:44:27;;;;;;;9.25;2.50;;;;;;;15.80;80.91;100476.50;6201374;28;20069;-76
2023/07/03 02:47:29;;;;;;;8.20;3.05;;;;;;;15.84;81.33;100474.47;6201017;28;20046;-76
2023/07/03 02:50:30;;;;;;;8.02;2.92;;;;;;;15.91;80.84;100468.56;6187207;28;20049;-76
2023/07/03 02:53:33;;;;;;;11.77;3.10;;;;;;;15.95;80.25;100461.22;6191348;28;20053;-76
2023/07/03 02:56:34;;;;;;;11.77;3.30;;;;;;;15.97;80.56;100467.22;6194695;28;20054;-76
2023/07/03 02:59:36;;;;;;;8.55;2.92;;;;;;;15.86;81.16;100467.25;6205671;28;20445;-76
2023/07/03 03:02:38;;;;;;;7.20;2.53;;;;;;;15.83;81.97;100473.63;6189812;28;20042;-76
2023/07/03 03:05:39;;;;;;;10.65;2.83;;;;;;;15.81;82.38;100464.13;6197594;28;20046;-75
2023/07/03 03:08:40;;;;;;;15.27;3.42;;;;;;;15.77;82.96;100460.88;6205258;28;20049;-77
2023/07/03 03:11:42;;;;;;;13.10;3.05;;;;;;;15.77;84.13;100455.56;6205316;28;20442;-76
2023/07/03 03:14:45;;;;;;;9.68;3.00;;;;;;;15.79;83.98;100452.78;6197208;28;20349;-78
2023/07/03 03:17:46;;;;;;;9.30;3.22;;;;;;;15.66;84.66;100453.75;6206064;28;20042;-78
2023/07/03 03:20:48;;;;;;;12.23;3.25;;;;;;;15.66;85.41;100434.38;6212677;28;20354;-75
2023/07/03 03:23:49;;;;;;;9.20;3.40;;;;;;;15.74;86.03;100439.91;6193045;28;20053;-77
2023/07/03 03:26:50;;;;;;;7.93;2.60;;;;;;;15.69;86.37;100440.28;6191952;28;20042;-74
2023/07/03 03:29:53;;;;;;;10.68;2.60;;;;;;;15.72;86.17;100436.56;6193957;28;20056;-76
2023/07/03 03:32:54;;;;;;;16.95;2.72;;;;;;;15.82;86.53;100439.31;6180018;28;20233;-77
2023/07/03 03:35:56;;;;;;;10.30;3.33;;;;;;;15.87;86.18;100440.59;6183256;28;20058;-76
2023/07/03 03:38:57;;;;;;;11.65;2.60;;;;;;;15.87;85.30;100445.91;6180661;28;20235;-77
2023/07/03 03:41:59;;;;;;;7.78;2.00;;;;;;;15.89;85.89;100443.97;6188980;28;20487;-76
2023/07/03 03:45:02;;;;;;;10.07;2.58;;;;;;;15.92;85.99;100449.03;6192297;28;20050;-77
2023/07/03 03:48:03;;;;;;;6.03;2.22;;;;;;;15.92;86.55;100453.50;6186253;28;20061;-77
2023/07/03 03:51:05;;;;;;;8.68;2.95;;;;;;;15.84;87.02;100453.25;6196846;28;20050;-76
2023/07/03 03:54:06;;;;;;;11.85;2.40;;;;;;;15.84;88.36;100448.81;6198017;28;20358;-76
2023/07/03 03:57:08;;;;;;;10.38;2.47;;;;;;;15.88;88.11;100452.88;6190433;28;20050;-76
2023/07/03 04:00:16;;;;;;;5.80;2.20;;;;;;;16.00;88.01;100444.94;6190921;28;20043;-77
2023/07/03 04:03:18;;;;;;;6.38;2.70;;;;;;;15.97;89.00;100448.66;6181715;28;20427;-76
2023/07/03 04:06:19;;;;;;;13.10;2.80;;;;;;;15.83;89.43;100455.06;6190594;28;20378;-76
2023/07/03 04:09:21;;;;;;;8.45;3.05;;;;;;;15.84;89.92;100456.75;6200706;28;20351;-76
2023/07/03 04:12:22;;;;;;;16.80;3.17;;;;;;;15.94;90.70;100452.41;6183372;28;20046;-76
2023/07/03 04:15:25;;;;;;;10.20;3.15;;;;;;;15.98;90.69;100447.69;6179490;28;20055;-75
2023/07/03 04:18:27;;;;;;;11.43;3.08;;;;;;;15.89;90.40;100465.16;6184666;28;20054;-76
2023/07/03 04:21:28;;;;;;;7.68;2.38;;;;;;;15.80;91.15;100454.47;6187909;28;20450;-75
2023/07/03 04:24:30;;;;;;;10.43;3.70;;;;;;;15.64;91.83;100452.22;6193613;28;20046;-77
2023/07/03 04:27:31;;;;;;;4.53;2.42;;;;;;;15.68;91.28;100454.50;6196117;28;20054;-77
2023/07/03 04:30:34;;;;;;;11.18;2.17;;;;;;;15.69;93.33;100453.53;6195199;28;20054;-76
2023/07/03 04:33:36;;;;;;;10.23;3.55;;;;;;;15.85;91.62;100461.09;6189917;28;20043;-75
2023/07/03 04:36:37;;;;;;;5.50;2.13;;;;;;;15.87;92.30;100455.66;6188425;28;20042;-75
2023/07/03 04:39:39;;;;;;;8.05;3.00;;;;;;;15.86;91.77;100457.47;6188271;28;20049;-75
2023/07/03 04:42:40;;;;;;;11.65;2.80;;;;;;;15.91;92.82;100457.94;6190777;28;20046;-75
2023/07/03 04:45:46;;;;;;;14.60;2.95;;;;;;;15.95;91.23;100469.16;6190673;28;20049;-75
2023/07/03 04:48:47;;;;;;;12.35;2.60;;;;;;;15.96;91.22;100469.03;6192210;28;20046;-75
2023/07/03 04:51:51;;;;;;;10.88;2.95;;;;;;;15.91;91.02;100468.56;6192725;28;20057;-75
2023/07/03 04:54:53;;;;;;;15.77;3.08;;;;;;;15.77;91.24;100482.06;6191264;28;20050;-78
2023/07/03 04:57:54;;;;;;;12.63;2.47;;;;;;;15.78;92.69;100472.31;6190353;28;20053;-75
2023/07/03 05:00:57;;;;;;;9.30;3.10;;;;;;;15.77;91.43;100479.41;6190612;28;20042;-76
2023/07/03 05:03:58;;;;;;;9.30;3.28;;;;;;;15.78;90.80;100474.97;6192399;28;20050;-76
2023/07/03 05:07:00;;;;;;;6.35;2.55;;;;;;;15.76;89.65;100477.75;6193836;28;20136;-79
2023/07/03 05:10:01;;;;;;;14.57;4.13;;;;;;;15.73;89.68;100483.28;6187443;28;20062;-78
2023/07/03 05:13:02;;;;;;;16.73;4.88;;;;;;;15.62;89.85;100481.41;6189860;28;20347;-78
2023/07/03 05:16:05;;;;;;;11.30;3.15;;;;;;;15.60;90.55;100483.34;6187342;28;20462;-77
2023/07/03 05:19:07;;;;;;;10.10;2.78;;;;;;;15.70;90.03;100489.63;6195040;28;20499;-76
2023/07/03 05:22:08;;;;;;;7.28;3.13;;;;;;;15.66;89.81;100485.53;6194620;28;20444;-76
2023/07/03 05:25:12;;;;;;;13.25;2.72;;;;;;;15.63;91.00;100485.78;6189626;28;20042;-76
2023/07/03 05:28:13;;;;;;;16.42;3.38;;;;;;;15.64;90.12;100484.84;6191349;28;20065;-77
2023/07/03 05:31:19;;;;;;;9.48;2.08;;;;;;;15.73;90.90;100484.09;6191911;28;20046;-76
2023/07/03 05:34:21;;;;;;;13.32;3.17;;;;;;;15.79;90.51;100489.88;6192296;28;20046;-76
2023/07/03 05:37:22;;;;;;;9.50;3.70;;;;;;;15.76;90.03;100493.63;6197331;28;20050;-76
2023/07/03 05:40:24;;;;;;;12.75;3.05;;;;;;;15.80;89.87;100496.84;6189293;28;20043;-77
2023/07/03 05:43:26;;;;;;;6.30;2.45;;;;;;;15.75;91.32;100496.38;6190924;28;20058;-75
2023/07/03 05:46:29;;;;;;;12.75;3.08;;;;;;;15.67;90.78;100512.91;6194021;28;20046;-76
2023/07/03 05:49:30;;;;;;;13.82;2.65;;;;;;;15.61;90.03;100516.81;6200010;28;20046;-79
2023/07/03 05:52:33;;;;;;;14.68;2.83;;;;;;;15.58;89.60;100527.69;6204618;28;20061;-79
2023/07/03 05:55:34;;;;;;;14.35;2.72;;;;;;;15.71;89.69;100525.78;6199401;28;20053;-76
2023/07/03 05:58:36;;;;;;;13.65;2.63;;;;;;;15.64;90.15;100529.88;6208535;28;20053;-75
2023/07/03 06:01:38;;;;;;;8.88;2.22;;;;;;;15.62;90.97;100521.16;6179486;28;20050;-77
2023/07/03 06:04:40;;;;;;;9.50;2.60;;;;;;;15.64;90.08;100518.44;6201294;28;20055;-78
2023/07/03 06:07:41;;;;;;;16.60;2.25;;;;;;;15.74;89.65;100524.69;6201356;28;20466;-76
2023/07/03 06:10:44;;;;;;;10.45;3.28;;;;;;;15.64;89.81;100521.91;6201454;28;20038;-76
2023/07/03 06:13:45;;;;;;;8.48;2.40;;;;;;;15.63;90.52;100514.91;6193345;28;20137;-76
2023/07/03 06:16:50;;;;;;;12.07;2.33;;;;;;;15.65;90.35;100520.94;6194478;28;20042;-75
2023/07/03 06:19:51;;;;;;;8.77;2.65;;;;;;;15.67;88.91;100536.75;6186092;28;20042;-79
2023/07/03 06:22:53;;;;;;;8.63;2.35;;;;;;;15.67;87.01;100537.59;6209366;28;20061;-76
2023/07/03 06:25:54;;;;;;;9.15;2.08;;;;;;;15.83;89.07;100539.88;6193233;28;20083;-75
2023/07/03 06:28:55;;;;;;;13.30;2.38;;;;;;;15.82;87.27;100548.78;6185058;28;20355;-77
2023/07/03 06:31:58;;;;;;;7.80;1.88;;;;;;;15.86;88.58;100541.44;6205026;28;20458;-75
2023/07/03 06:34:59;;;;;;;11.18;2.60;;;;;;;15.93;87.83;100545.28;6206620;28;20058;-76
2023/07/03 06:38:02;;;;;;;15.02;2.33;;;;;;;15.79;88.12;100543.72;6206053;28;20458;-77
2023/07/03 06:41:04;;;;;;;11.30;3.03;;;;;;;15.81;87.49;100552.41;6208570;28;20410;-78
2023/07/03 06:44:07;;;;;;;6.53;2.67;;;;;;;15.98;87.99;100551.06;6202919;28;20057;-76
2023/07/03 06:47:10;;;;;;;11.00;2.22;;;;;;;16.01;86.48;100557.94;6205844;28;20042;-79
2023/07/03 06:50:12;;;;;;;8.98;2.42;;;;;;;16.07;86.72;100558.28;6206054;28;20047;-76
2023/07/03 06:53:13;;;;;;;10.35;2.88;;;;;;;16.05;85.38;100554.09;6197442;28;20053;-80
2023/07/03 06:56:14;;;;;;;9.73;2.50;;;;;;;16.11;85.03;100550.94;6197938;28;20061;-79
2023/07/03 06:59:16;;;;;;;7.18;2.00;;;;;;;16.15;86.41;100553.22;6203774;28;20043;-77
2023/07/03 07:02:19;;;;;;;16.50;2.60;;;;;;;16.18;86.03;100560.09;6205742;28;20046;-77
2023/07/03 07:05:21;;;;;;;9.38;2.90;;;;;;;16.23;86.15;100557.91;6202064;28;20346;-76
2023/07/03 07:08:22;;;;;;;8.00;2.47;;;;;;;16.26;85.95;100551.50;6200390;28;20073;-79
2023/07/03 07:11:26;;;;;;;8.35;2.63;;;;;;;16.25;84.87;100553.31;6197418;28;20042;-78
2023/07/03 07:14:27;;;;;;;10.50;3.10;;;;;;;16.24;86.01;100555.13;6202920;28;20358;-78
2023/07/03 07:17:30;;;;;;;15.20;2.67;;;;;;;16.35;86.33;100556.94;6207617;28;20358;-77
2023/07/03 07:20:36;;;;;;;17.70;2.33;;;;;;;16.43;85.36;100564.25;6187095;28;20061;-72
2023/07/03 07:23:38;;;;;;;6.78;2.25;;;;;;;16.42;85.91;100563.41;6205061;28;20054;-76
2023/07/03 07:26:39;;;;;;;5.22;1.90;;;;;;;16.51;86.86;100568.97;6213346;28;20434;-78
2023/07/03 07:29:41;;;;;;;8.98;2.40;;;;;;;16.60;86.20;100554.94;6197854;28;20050;-76
2023/07/03 07:32:44;;;;;;;9.05;2.90;;;;;;;16.61;83.62;100562.75;6204118;28;20359;-81
2023/07/03 07:35:45;;;;;;;6.47;1.98;;;;;;;16.69;84.86;100551.53;6213105;28;20438;-75
2023/07/03 07:38:46;;;;;;;14.68;2.17;;;;;;;16.86;86.40;100555.50;6204772;28;20328;-75
2023/07/03 07:41:51;;;;;;;12.00;2.47;;;;;;;17.01;84.85;100569.31;6196347;28;20043;-81
2023/07/03 07:44:52;;;;;;;10.65;3.55;;;;;;;17.02;83.20;100573.63;6195996;28;20046;-78
2023/07/03 07:47:55;;;;;;;9.07;2.40;;;;;;;17.08;82.01;100563.38;6205869;28;20046;-78
2023/07/03 07:50:56;;;;;;;9.40;2.28;;;;;;;17.06;81.80;100567.09;6193968;28;20526;-73
2023/07/03 07:53:58;;;;;;;16.35;3.55;;;;;;;16.95;81.78;100565.34;6181672;28;20058;-80
2023/07/03 07:56:59;;;;;;;13.32;2.33;;;;;;;17.01;81.91;100570.13;6206125;28;20058;-79
2023/07/03 08:00:01;;;;;;;7.05;1.92;;;;;;;17.10;81.44;100574.69;6192496;28;20043;-74
2023/07/03 08:03:04;;;;;;;9.20;2.50;;;;;;;17.01;80.85;100575.44;6196929;28;20050;-86
2023/07/03 08:06:05;;;;;;;8.82;1.90;;;;;;;17.00;82.11;100571.13;6194146;28;20053;-75
2023/07/03 08:09:07;;;;;;;10.32;3.30;;;;;;;17.04;83.27;100591.13;6197590;28;20047;-81
2023/07/03 08:12:09;;;;;;;14.95;2.65;;;;;;;17.11;82.69;100578.19;6202236;28;20334;-75
2023/07/03 08:15:11;;;;;;;15.80;2.28;;;;;;;17.17;82.86;100581.19;6205208;28;20046;-76
2023/07/03 08:18:16;;;;;;;7.32;2.25;;;;;;;17.26;81.71;100584.88;6186777;28;20352;-74
2023/07/03 08:21:17;;;;;;;11.18;2.25;;;;;;;17.15;81.07;100587.56;6195865;28;20049;-79
2023/07/03 08:24:19;;;;;;;9.70;2.63;;;;;;;17.28;83.32;100584.75;6195947;28;20054;-76
2023/07/03 08:27:20;;;;;;;13.18;3.30;;;;;;;17.25;82.60;100581.34;6195617;28;20050;-76
2023/07/03 08:30:22;;;;;;;14.30;3.38;;;;;;;17.34;82.35;100587.72;6197713;28;20050;-81
2023/07/03 08:33:26;;;;;;;10.07;2.40;;;;;;;17.38;80.17;100588.28;6193545;28;20110;-75
2023/07/03 08:36:27;;;;;;;13.98;2.22;;;;;;;17.43;82.19;100600.22;6198093;28;20369;-80
2023/07/03 08:39:29;;;;;;;6.78;2.80;;;;;;;17.49;78.70;100601.53;6191524;28;20046;-77
2023/07/03 08:42:36;;;;;;;5.57;1.95;;;;;;;17.48;80.30;100590.03;6186550;28;20431;-74
2023/07/03 08:45:40;;;;;;;7.07;2.05;;;;;;;17.43;77.05;100592.25;6179153;28;20043;-83
2023/07/03 08:48:45;;;;;;;14.07;3.20;;;;;;;17.50;80.11;100585.44;6193829;28;20054;-74
2023/07/03 08:51:47;;;;;;;10.70;2.53;;;;;;;17.60;79.54;100579.34;6202073;28;20054;-74
2023/07/03 08:54:50;;;;;;;12.45;2.03;;;;;;;17.64;77.78;100583.44;6202386;28;20057;-79
2023/07/03 08:57:51;;;;;;;10.73;2.28;;;;;;;17.65;77.36;100590.44;6193868;28;20359;-79
2023/07/03 09:01:04;;;;;;;11.27;2.35;;;;;;;17.67;76.19;100584.03;6204163;28;20046;-76
2023/07/03 09:04:22;;;;;;;7.75;2.88;;;;;;;17.75;75.87;100605.47;6208553;28;20442;-75
2023/07/03 09:07:32;;;;;;;6.50;2.00;;;;;;;17.77;76.51;100600.06;6202982;28;20130;-74
2023/07/03 09:10:39;;;;;;;6.45;1.55;;;;;;;17.80;73.84;100581.16;6200956;28;20042;-76
2023/07/03 09:13:46;;;;;;;11.93;3.15;;;;;;;17.96;75.74;100580.69;6200571;28;20455;-75
2023/07/03 09:16:48;;;;;;;9.50;1.70;;;;;;;18.12;73.58;100596.13;6192318;28;20101;-79
2023/07/03 09:19:53;;;;;;;7.78;1.83;;;;;;;18.18;74.35;100593.78;6195076;28;20049;-75
2023/07/03 09:23:00;;;;;;;9.95;2.42;;;;;;;17.98;71.65;100590.19;6195073;28;20043;-78
2023/07/03 09:26:07;;;;;;;14.73;2.55;;;;;;;18.04;70.76;100610.13;6203827;28;20200;-78
2023/07/03 09:29:08;;;;;;;16.30;2.45;;;;;;;17.94;68.92;100602.09;6218578;28;20046;-79
2023/07/03 09:32:12;;;;;;;6.82;1.70;;;;;;;17.97;70.12;100595.66;6207371;28;20057;-75
2023/07/03 09:35:17;;;;;;;8.48;1.70;;;;;;;18.14;69.10;100595.03;6207171;28;20347;-75
2023/07/03 09:38:23;;;;;;;10.82;2.10;;;;;;;18.24;67.11;100597.72;6186061;28;20046;-75
2023/07/03 09:41:27;;;;;;;5.65;1.70;;;;;;;18.35;68.86;100600.31;6198432;28;20446;-75
2023/07/03 09:44:29;;;;;;;3.03;1.35;;;;;;;18.39;65.77;100614.16;6213207;28;20043;-80
2023/07/03 09:47:30;;;;;;;5.22;1.42;;;;;;;18.21;65.24;100604.19;6193594;28;20129;-76
2023/07/03 09:50:36;;;;;;;7.85;1.70;;;;;;;18.16;65.74;100608.19;6199251;28;20046;-77
2023/07/03 09:53:40;;;;;;;6.55;1.25;;;;;;;18.28;65.60;100595.66;6194390;28;20452;-75
2023/07/03 09:56:41;;;;;;;6.18;1.65;;;;;;;18.39;66.02;100606.16;6177533;28;20038;-75
2023/07/03 09:59:42;;;;;;;9.80;1.75;;;;;;;18.48;64.79;100600.88;6201101;28;20084;-75
2023/07/03 10:02:44;;;;;;;11.13;1.75;;;;;;;18.58;64.63;100598.25;6194374;28;20047;-75
2023/07/03 10:05:47;;;;;;;7.20;1.27;;;;;;;18.55;64.04;100605.66;6185428;28;20061;-73
2023/07/03 10:08:51;;;;;;;8.88;1.98;;;;;;;18.61;64.96;100605.94;6201137;28;20046;-74
2023/07/03 10:12:01;;;;;;;6.45;1.60;;;;;;;18.69;66.09;100592.81;6201536;28;20042;-75
2023/07/03 10:15:06;;;;;;;6.18;1.42;;;;;;;18.81;63.97;100580.25;6201540;28;20057;-75
2023/07/03 10:18:12;;;;;;;4.78;1.75;;;;;;;19.03;62.23;100584.47;6201816;28;20057;-75
2023/07/03 10:21:18;;;;;;;8.85;2.13;;;;;;;19.10;60.37;100606.03;6201353;28;20054;-79
2023/07/03 10:24:21;;;;;;;6.28;1.40;;;;;;;18.94;57.23;100593.25;6205786;28;20046;-77
2023/07/03 10:27:26;;;;;;;2.80;1.38;;;;;;;18.89;59.49;100596.34;6193200;28;20457;-76
2023/07/03 10:30:33;;;;;;;5.07;1.70;;;;;;;18.59;58.94;100610.56;6190605;28;20042;-75
2023/07/03 10:33:40;;;;;;;8.68;1.35;;;;;;;18.46;60.02;100618.81;6201050;28;20054;-75
2023/07/03 10:36:49;;;;;;;6.15;1.70;;;;;;;18.30;60.57;100622.94;6201695;28;20054;-73
2023/07/03 10:39:54;;;;;;;9.27;1.52;;;;;;;18.25;60.61;100632.16;6193774;28;20132;-74
2023/07/03 10:42:58;;;;;;;7.03;1.52;;;;;;;18.35;60.44;100626.91;6201265;28;20109;-73
2023/07/03 10:46:00;;;;;;;8.57;2.13;;;;;;;18.42;59.84;100620.06;6201204;28;20054;-74
2023/07/03 10:49:06;;;;;;;3.95;1.40;;;;;;;18.56;62.09;100618.00;6201287;28;20066;-74
2023/07/03 10:52:16;;;;;;;4.22;1.08;;;;;;;18.52;55.48;100636.88;6200821;28;20184;-78
2023/07/03 10:55:28;;;;;;;5.38;1.63;;;;;;;18.60;54.94;100609.59;6201078;28;20042;-73
2023/07/03 10:58:37;;;;;;;4.13;1.45;;;;;;;18.71;55.02;100620.16;6200977;28;20046;-76
2023/07/03 11:01:44;;;;;;;2.13;0.90;;;;;;;18.89;54.39;100614.16;6201009;28;20181;-74
2023/07/03 11:04:57;;;;;;;8.90;1.45;;;;;;;19.10;54.73;100622.84;6201704;28;20064;-79
2023/07/03 11:08:13;;;;;;;4.97;1.40;;;;;;;19.30;54.56;100617.53;6194767;28;20358;-72
2023/07/03 11:11:24;;;;;;;5.03;2.03;;;;;;;19.40;54.25;100605.06;6200764;28;20052;-76
2023/07/03 11:14:36;;;;;;;6.07;1.50;;;;;;;19.52;57.17;100611.88;6195173;28;20438;-73
2023/07/03 11:17:48;;;;;;;5.80;1.42;;;;;;;19.50;55.72;100603.19;6198392;28;20549;-74
2023/07/03 11:20:56;;;;;;;3.33;1.23;;;;;;;19.61;55.23;100603.06;6197533;28;20047;-74
2023/07/03 11:24:09;;;;;;;7.38;1.77;;;;;;;19.72;55.67;100626.91;6196860;28;20061;-77
2023/07/03 11:27:19;;;;;;;6.28;1.35;;;;;;;19.79;54.47;100615.66;6184096;28;20047;-80
2023/07/03 11:30:22;;;;;;;3.85;0.93;;;;;;;19.85;51.69;100609.72;6192128;28;20046;-80
2023/07/03 11:33:24;;;;;;;6.38;1.75;;;;;;;19.91;53.47;100617.16;6196413;28;20049;-77
2023/07/03 11:36:38;;;;;;;8.15;1.73;;;;;;;20.04;54.67;100607.00;6201526;28;20047;-75
2023/07/03 11:39:50;;;;;;;3.20;1.10;;;;;;;20.16;55.31;100603.16;6206743;28;20363;-78
2023/07/03 11:43:05;;;;;;;4.22;1.58;;;;;;;20.23;56.43;100604.25;6196543;28;20054;-76
2023/07/03 11:46:16;;;;;;;4.78;1.55;;;;;;;20.17;55.30;100610.19;6204853;28;20058;-74
2023/07/03 11:49:18;;;;;;;1.88;1.23;;;;;;;20.17;55.08;100612.03;6209279;28;20047;-74
2023/07/03 11:52:26;;;;;;;5.97;1.60;;;;;;;20.38;53.70;100603.75;6203827;28;20042;-76
2023/07/03 11:55:39;;;;;;;6.20;1.55;;;;;;;20.58;54.84;100605.38;6199743;28;20046;-74
2023/07/03 11:58:40;;;;;;;5.82;1.65;;;;;;;20.64;54.12;100617.28;6204737;28;20057;-76
2023/07/03 12:01:42;;;;;;;4.40;1.48;;;;;;;20.48;55.31;100624.13;6219070;28;20061;-81
2023/07/03 12:04:51;;;;;;;13.95;3.10;;;;;;;19.98;55.74;100621.78;6205006;28;20045;-76
2023/07/03 12:07:52;;;;;;;;;;;;;;;19.81;57.12;100624.38;6212499;28;20050;-76
2023/07/03 12:10:59;;;;;;;4.03;1.17;;;;;;;19.61;56.29;100611.06;6204211;28;19922;-76
2023/07/03 12:14:01;;;;;;;10.95;2.10;;;;;;;19.42;56.76;100622.56;6203926;28;20129;-75
2023/07/03 12:17:03;;;;;;;5.47;1.58;;;;;;;19.40;58.05;100626.38;6204136;28;20062;-74
2023/07/03 12:20:06;;;;;;;4.55;1.05;;;;;;;19.40;56.77;100626.38;6203581;28;20050;-79
2023/07/03 12:23:08;;;;;;;5.43;1.40;;;;;;;19.57;56.64;100630.94;6209727;28;20050;-75
2023/07/03 12:26:12;;;;;;;7.47;2.00;;;;;;;19.90;56.55;100637.66;6199303;28;20046;-75
2023/07/03 12:29:13;;;;;;;3.60;1.40;;;;;;;20.30;54.51;100638.34;6200860;28;20046;-73
2023/07/03 12:32:24;;;;;;;6.75;2.25;;;;;;;20.64;52.86;100635.97;6196318;28;20050;-74
2023/07/03 12:35:27;;;;;;;6.57;1.45;;;;;;;20.45;52.85;100650.25;6197116;28;20051;-73
2023/07/03 12:38:28;;;;;;;8.32;1.40;;;;;;;20.23;52.22;100644.28;6194462;28;20431;-74
2023/07/03 12:41:33;;;;;;;3.10;1.40;;;;;;;20.05;51.52;100639.88;6202263;28;20039;-74
2023/07/03 12:44:34;;;;;;;4.13;1.00;;;;;;;19.75;51.06;100657.75;6201178;28;20050;-73
2023/07/03 12:47:36;;;;;;;2.78;1.10;;;;;;;19.60;52.05;100651.16;6199081;28;20050;-72
2023/07/03 12:50:47;;;;;;;3.90;1.92;;;;;;;19.41;52.77;100646.69;6197299;28;20072;-72
2023/07/03 12:53:48;;;;;;;1.83;1.00;;;;;;;19.26;53.04;100651.63;6198120;28;20469;-74
2023/07/03 12:56:53;;;;;;;2.65;0.95;;;;;;;19.20;53.24;100654.81;6199970;28;20050;-74
2023/07/03 12:59:54;;;;;;;5.63;1.23;;;;;;;19.14;54.26;100656.22;6195217;28;20057;-73
2023/07/03 13:02:57;;;;;;;4.88;1.67;;;;;;;19.12;55.24;100660.00;6190302;28;20054;-74
2023/07/03 13:05:59;;;;;;;7.63;1.70;;;;;;;19.15;55.76;100667.72;6192177;28;20051;-74
2023/07/03 13:09:02;;;;;;;7.85;1.70;;;;;;;19.12;56.91;100673.31;6195514;28;20050;-79
2023/07/03 13:12:17;;;;;;;3.03;1.17;;;;;;;19.15;55.55;100670.38;6202269;28;20047;-74
2023/07/03 13:15:32;;;;;;;6.20;2.10;;;;;;;19.17;55.40;100676.44;6214360;28;20042;-75
2023/07/03 13:18:34;;;;;;;11.07;2.60;;;;;;;19.16;55.17;100664.06;6201649;28;20358;-73
2023/07/03 13:21:37;;;;;;;4.53;1.20;;;;;;;19.08;55.55;100672.78;6188096;28;20050;-74
2023/07/03 13:24:44;;;;;;;3.28;1.20;;;;;;;19.04;55.19;100681.19;6193022;28;20046;-75
2023/07/03 13:27:48;;;;;;;5.75;1.35;;;;;;;19.04;56.65;100686.50;6195008;28;20050;-74
2023/07/03 13:31:04;;;;;;;4.53;1.33;;;;;;;18.91;55.54;100681.44;6188682;28;20077;-75
2023/07/03 13:34:10;;;;;;;2.95;1.27;;;;;;;18.88;56.21;100687.88;6187367;28;20154;-75
2023/07/03 13:37:11;;;;;;;12.23;1.42;;;;;;;18.81;56.38;100688.56;6196717;28;20062;-73
2023/07/03 13:40:13;;;;;;;4.32;1.35;;;;;;;18.71;56.94;100696.50;6190683;28;20435;-77
2023/07/03 13:43:21;;;;;;;5.25;1.35;;;;;;;18.58;57.40;100691.41;6189672;28;20065;-77
2023/07/03 13:46:22;;;;;;;6.75;1.23;;;;;;;18.51;57.78;100699.06;6189878;28;20053;-75
2023/07/03 13:49:24;;;;;;;6.78;1.60;;;;;;;18.57;58.79;100703.00;6191668;28;20047;-74
2023/07/03 13:52:25;;;;;;;9.20;1.40;;;;;;;18.47;59.27;100704.81;6187399;28;20430;-74
2023/07/03 13:55:27;;;;;;;6.68;1.25;;;;;;;18.29;60.42;100707.25;6188994;28;20053;-74
2023/07/03 13:58:31;;;;;;;8.48;2.05;;;;;;;18.25;61.53;100697.84;6193696;28;20046;-75
2023/07/03 14:01:34;;;;;;;6.43;1.50;;;;;;;18.32;60.19;100700.81;6191883;28;20074;-75
2023/07/03 14:04:35;;;;;;;4.18;0.88;;;;;;;18.40;60.17;100699.19;6193492;28;20050;-74
2023/07/03 14:07:37;;;;;;;6.90;1.38;;;;;;;18.47;61.17;100689.66;6179887;28;20051;-75
2023/07/03 14:10:38;;;;;;;3.33;1.00;;;;;;;18.58;60.88;100694.06;6199336;28;20350;-75
2023/07/03 14:13:42;;;;;;;10.05;1.55;;;;;;;18.57;60.10;100684.38;6201357;28;20046;-75